sensor_id;sensor_type;location;lat;lon;timestamp;temperature;humidity
23839;DHT22;12100;44.384;20.272;2022-12-07T00:01:36;6.10;99.90
23839;DHT22;12100;44.384;20.272;2022-12-07T00:04:04;6.10;99.90
23839;DHT22;12100;44.384;20.272;2022-12-07T00:06:45;6.10;99.90
23839;DHT22;12100;44.384;20.272;2022-12-07T00:09:13;6.00;99.90
23839;DHT22;12100;44.384;20.272;2022-12-07T00:11:39;6.00;99.90
23839;DHT22;12100;44.384;20.272;2022-12-07T00:14:08;5.90;99.90
23839;DHT22;12100;44.384;20.272;2022-12-07T00:16:35;5.90;99.90
23839;DHT22;12100;44.384;20.272;2022-12-07T00:19:03;5.90;99.90
23839;DHT22;12100;44.384;20.272;2022-12-07T00:21:31;5.90;99.90
23839;DHT22;12100;44.384;20.272;2022-12-07T00:23:57;5.90;99.90
23839;DHT22;12100;44.384;20.272;2022-12-07T00:26:26;5.90;99.90
23839;DHT22;12100;44.384;20.272;2022-12-07T00:28:58;5.90;99.90
23839;DHT22;12100;44.384;20.272;2022-12-07T00:31:27;5.90;99.90
23839;DHT22;12100;44.384;20.272;2022-12-07T00:33:53;5.80;99.90
23839;DHT22;12100;44.384;20.272;2022-12-07T00:36:21;5.70;99.90
23839;DHT22;12100;44.384;20.272;2022-12-07T00:38:47;5.80;99.90
23839;DHT22;12100;44.384;20.272;2022-12-07T00:41:18;5.80;99.90
23839;DHT22;12100;44.384;20.272;2022-12-07T00:43:45;5.80;99.90
23839;DHT22;12100;44.384;20.272;2022-12-07T00:46:12;5.90;99.90
23839;DHT22;12100;44.384;20.272;2022-12-07T00:48:38;5.80;99.90
23839;DHT22;12100;44.384;20.272;2022-12-07T00:51:06;5.70;99.90
23839;DHT22;12100;44.384;20.272;2022-12-07T00:53:34;5.70;99.90
23839;DHT22;12100;44.384;20.272;2022-12-07T00:56:08;5.70;99.90
23839;DHT22;12100;44.384;20.272;2022-12-07T00:58:34;5.80;99.90
23839;DHT22;12100;44.384;20.272;2022-12-07T01:01:04;5.60;99.90
23839;DHT22;12100;44.384;20.272;2022-12-07T01:03:30;5.60;99.90
23839;DHT22;12100;44.384;20.272;2022-12-07T01:05:57;5.60;99.90
23839;DHT22;12100;44.384;20.272;2022-12-07T01:08:24;5.60;99.90
23839;DHT22;12100;44.384;20.272;2022-12-07T01:11:05;5.60;99.90
23839;DHT22;12100;44.384;20.272;2022-12-07T01:13:32;5.60;99.90
23839;DHT22;12100;44.384;20.272;2022-12-07T01:16:00;5.70;99.90
23839;DHT22;12100;44.384;20.272;2022-12-07T01:18:30;5.70;99.90
23839;DHT22;12100;44.384;20.272;2022-12-07T01:21:10;5.70;99.90
23839;DHT22;12100;44.384;20.272;2022-12-07T01:23:36;5.70;99.90
23839;DHT22;12100;44.384;20.272;2022-12-07T01:26:05;5.70;99.90
23839;DHT22;12100;44.384;20.272;2022-12-07T01:28:32;5.80;99.90
23839;DHT22;12100;44.384;20.272;2022-12-07T01:31:09;5.80;99.90
23839;DHT22;12100;44.384;20.272;2022-12-07T01:33:41;5.70;99.90
23839;DHT22;12100;44.384;20.272;2022-12-07T01:36:16;5.80;99.90
23839;DHT22;12100;44.384;20.272;2022-12-07T01:38:43;5.70;99.90
23839;DHT22;12100;44.384;20.272;2022-12-07T01:41:10;5.80;99.90
23839;DHT22;12100;44.384;20.272;2022-12-07T01:43:36;5.80;99.90
23839;DHT22;12100;44.384;20.272;2022-12-07T01:46:03;5.80;99.90
23839;DHT22;12100;44.384;20.272;2022-12-07T01:48:40;5.70;99.90
23839;DHT22;12100;44.384;20.272;2022-12-07T01:51:10;5.70;99.90
23839;DHT22;12100;44.384;20.272;2022-12-07T01:53:42;5.70;99.90
23839;DHT22;12100;44.384;20.272;2022-12-07T01:56:12;5.70;99.90
23839;DHT22;12100;44.384;20.272;2022-12-07T01:58:39;5.70;99.90
23839;DHT22;12100;44.384;20.272;2022-12-07T02:01:05;5.70;99.90
23839;DHT22;12100;44.384;20.272;2022-12-07T02:03:38;5.70;99.90
23839;DHT22;12100;44.384;20.272;2022-12-07T02:06:06;5.80;99.90
23839;DHT22;12100;44.384;20.272;2022-12-07T02:08:33;5.80;99.90
23839;DHT22;12100;44.384;20.272;2022-12-07T02:11:00;5.90;99.90
23839;DHT22;12100;44.384;20.272;2022-12-07T02:13:30;5.90;99.90
23839;DHT22;12100;44.384;20.272;2022-12-07T02:21:56;6.00;99.90
23839;DHT22;12100;44.384;20.272;2022-12-07T02:29:47;5.70;99.90
23839;DHT22;12100;44.384;20.272;2022-12-07T02:35:22;5.80;99.90
23839;DHT22;12100;44.384;20.272;2022-12-07T02:38:20;5.90;99.90
23839;DHT22;12100;44.384;20.272;2022-12-07T02:41:02;6.00;99.90
23839;DHT22;12100;44.384;20.272;2022-12-07T02:43:35;5.90;99.90
23839;DHT22;12100;44.384;20.272;2022-12-07T02:46:08;6.00;99.90
23839;DHT22;12100;44.384;20.272;2022-12-07T02:48:36;6.00;99.90
23839;DHT22;12100;44.384;20.272;2022-12-07T02:51:04;6.00;99.90
23839;DHT22;12100;44.384;20.272;2022-12-07T02:53:36;6.00;99.90
23839;DHT22;12100;44.384;20.272;2022-12-07T02:56:04;6.10;99.90
23839;DHT22;12100;44.384;20.272;2022-12-07T02:58:54;6.00;99.90
23839;DHT22;12100;44.384;20.272;2022-12-07T03:08:07;6.00;99.90
23839;DHT22;12100;44.384;20.272;2022-12-07T03:18:18;6.00;99.90
23839;DHT22;12100;44.384;20.272;2022-12-07T03:20:46;5.90;99.90
23839;DHT22;12100;44.384;20.272;2022-12-07T03:23:15;5.90;99.90
23839;DHT22;12100;44.384;20.272;2022-12-07T03:25:49;6.00;99.90
23839;DHT22;12100;44.384;20.272;2022-12-07T03:28:19;6.00;99.90
23839;DHT22;12100;44.384;20.272;2022-12-07T03:30:51;6.10;99.90
23839;DHT22;12100;44.384;20.272;2022-12-07T03:33:21;6.00;99.90
23839;DHT22;12100;44.384;20.272;2022-12-07T03:35:54;5.90;99.90
23839;DHT22;12100;44.384;20.272;2022-12-07T03:38:45;5.80;99.90
23839;DHT22;12100;44.384;20.272;2022-12-07T03:41:29;5.90;99.90
23839;DHT22;12100;44.384;20.272;2022-12-07T03:43:55;5.90;99.90
23839;DHT22;12100;44.384;20.272;2022-12-07T03:46:31;6.00;99.90
23839;DHT22;12100;44.384;20.272;2022-12-07T03:57:20;6.30;99.90
23839;DHT22;12100;44.384;20.272;2022-12-07T03:59:47;6.40;99.90
23839;DHT22;12100;44.384;20.272;2022-12-07T04:02:13;6.40;99.90
23839;DHT22;12100;44.384;20.272;2022-12-07T04:04:41;6.30;99.90
23839;DHT22;12100;44.384;20.272;2022-12-07T04:07:08;6.30;99.90
23839;DHT22;12100;44.384;20.272;2022-12-07T04:09:34;6.20;99.90
23839;DHT22;12100;44.384;20.272;2022-12-07T04:12:00;6.20;99.90
23839;DHT22;12100;44.384;20.272;2022-12-07T04:14:25;6.20;99.90
23839;DHT22;12100;44.384;20.272;2022-12-07T04:16:54;6.30;99.90
23839;DHT22;12100;44.384;20.272;2022-12-07T04:19:27;6.30;99.90
23839;DHT22;12100;44.384;20.272;2022-12-07T04:21:54;6.50;99.90
23839;DHT22;12100;44.384;20.272;2022-12-07T04:24:20;6.50;99.90
23839;DHT22;12100;44.384;20.272;2022-12-07T04:26:46;6.50;99.90
23839;DHT22;12100;44.384;20.272;2022-12-07T04:29:13;6.40;99.90
23839;DHT22;12100;44.384;20.272;2022-12-07T04:31:39;6.30;99.90
23839;DHT22;12100;44.384;20.272;2022-12-07T04:34:05;6.40;99.90
23839;DHT22;12100;44.384;20.272;2022-12-07T04:36:31;6.30;99.90
23839;DHT22;12100;44.384;20.272;2022-12-07T04:38:57;6.10;99.90
23839;DHT22;12100;44.384;20.272;2022-12-07T04:41:24;6.10;99.90
23839;DHT22;12100;44.384;20.272;2022-12-07T04:44:00;6.10;99.90
23839;DHT22;12100;44.384;20.272;2022-12-07T04:46:27;6.10;99.90
23839;DHT22;12100;44.384;20.272;2022-12-07T04:48:54;6.10;99.90
23839;DHT22;12100;44.384;20.272;2022-12-07T04:51:23;6.10;99.90
23839;DHT22;12100;44.384;20.272;2022-12-07T04:53:49;6.20;99.90
23839;DHT22;12100;44.384;20.272;2022-12-07T04:56:16;6.30;99.90
23839;DHT22;12100;44.384;20.272;2022-12-07T04:58:43;6.40;99.90
23839;DHT22;12100;44.384;20.272;2022-12-07T05:01:09;6.50;99.90
23839;DHT22;12100;44.384;20.272;2022-12-07T05:03:36;6.50;99.90
23839;DHT22;12100;44.384;20.272;2022-12-07T05:06:03;6.50;99.90
23839;DHT22;12100;44.384;20.272;2022-12-07T05:08:29;6.60;99.90
23839;DHT22;12100;44.384;20.272;2022-12-07T05:10:55;6.60;99.90
23839;DHT22;12100;44.384;20.272;2022-12-07T05:13:21;6.40;99.90
23839;DHT22;12100;44.384;20.272;2022-12-07T05:15:47;6.40;99.90
23839;DHT22;12100;44.384;20.272;2022-12-07T05:18:13;6.40;99.90
23839;DHT22;12100;44.384;20.272;2022-12-07T05:20:40;6.50;99.90
23839;DHT22;12100;44.384;20.272;2022-12-07T05:23:06;6.40;99.90
23839;DHT22;12100;44.384;20.272;2022-12-07T05:25:32;6.30;99.90
23839;DHT22;12100;44.384;20.272;2022-12-07T05:27:57;6.30;99.90
23839;DHT22;12100;44.384;20.272;2022-12-07T05:30:24;6.30;99.90
23839;DHT22;12100;44.384;20.272;2022-12-07T05:32:51;6.40;99.90
23839;DHT22;12100;44.384;20.272;2022-12-07T05:35:17;6.40;99.90
23839;DHT22;12100;44.384;20.272;2022-12-07T05:37:44;6.50;99.90
23839;DHT22;12100;44.384;20.272;2022-12-07T05:40:11;6.50;99.90
23839;DHT22;12100;44.384;20.272;2022-12-07T05:42:37;6.60;99.90
23839;DHT22;12100;44.384;20.272;2022-12-07T05:45:03;6.60;99.90
23839;DHT22;12100;44.384;20.272;2022-12-07T05:47:29;6.70;99.90
23839;DHT22;12100;44.384;20.272;2022-12-07T05:49:55;6.70;99.90
23839;DHT22;12100;44.384;20.272;2022-12-07T05:52:22;6.70;99.90
23839;DHT22;12100;44.384;20.272;2022-12-07T05:54:48;6.70;99.90
23839;DHT22;12100;44.384;20.272;2022-12-07T05:57:13;6.70;99.90
23839;DHT22;12100;44.384;20.272;2022-12-07T05:59:39;6.70;99.90
23839;DHT22;12100;44.384;20.272;2022-12-07T06:02:14;6.80;99.90
23839;DHT22;12100;44.384;20.272;2022-12-07T06:04:43;6.70;99.90
23839;DHT22;12100;44.384;20.272;2022-12-07T06:07:10;6.80;99.90
23839;DHT22;12100;44.384;20.272;2022-12-07T06:09:36;6.80;99.90
23839;DHT22;12100;44.384;20.272;2022-12-07T06:12:03;6.80;99.90
23839;DHT22;12100;44.384;20.272;2022-12-07T06:14:47;6.80;99.90
23839;DHT22;12100;44.384;20.272;2022-12-07T06:17:14;6.80;99.90
23839;DHT22;12100;44.384;20.272;2022-12-07T06:19:40;6.70;99.90
23839;DHT22;12100;44.384;20.272;2022-12-07T06:22:06;6.70;99.90
23839;DHT22;12100;44.384;20.272;2022-12-07T06:24:33;6.60;99.90
23839;DHT22;12100;44.384;20.272;2022-12-07T06:26:59;6.70;99.90
23839;DHT22;12100;44.384;20.272;2022-12-07T06:29:25;6.80;99.90
23839;DHT22;12100;44.384;20.272;2022-12-07T06:31:51;6.90;99.90
23839;DHT22;12100;44.384;20.272;2022-12-07T06:34:19;6.90;99.90
23839;DHT22;12100;44.384;20.272;2022-12-07T06:36:46;6.80;99.90
23839;DHT22;12100;44.384;20.272;2022-12-07T06:39:20;6.80;99.90
23839;DHT22;12100;44.384;20.272;2022-12-07T06:41:46;6.70;99.90
23839;DHT22;12100;44.384;20.272;2022-12-07T06:44:12;6.70;99.90
23839;DHT22;12100;44.384;20.272;2022-12-07T06:46:38;6.80;99.90
23839;DHT22;12100;44.384;20.272;2022-12-07T06:49:04;6.90;99.90
23839;DHT22;12100;44.384;20.272;2022-12-07T06:51:32;6.90;99.90
23839;DHT22;12100;44.384;20.272;2022-12-07T06:53:57;7.00;99.90
23839;DHT22;12100;44.384;20.272;2022-12-07T06:56:23;7.00;99.90
23839;DHT22;12100;44.384;20.272;2022-12-07T06:58:49;7.00;99.90
23839;DHT22;12100;44.384;20.272;2022-12-07T07:01:17;7.00;99.90
23839;DHT22;12100;44.384;20.272;2022-12-07T07:03:44;7.10;99.90
23839;DHT22;12100;44.384;20.272;2022-12-07T07:06:11;7.20;99.90
23839;DHT22;12100;44.384;20.272;2022-12-07T07:08:37;7.30;99.90
23839;DHT22;12100;44.384;20.272;2022-12-07T07:11:04;7.40;99.90
23839;DHT22;12100;44.384;20.272;2022-12-07T07:13:30;7.40;99.90
23839;DHT22;12100;44.384;20.272;2022-12-07T07:15:56;7.30;99.90
23839;DHT22;12100;44.384;20.272;2022-12-07T07:18:21;7.30;99.90
23839;DHT22;12100;44.384;20.272;2022-12-07T07:20:47;7.40;99.90
23839;DHT22;12100;44.384;20.272;2022-12-07T07:23:13;7.40;99.90
23839;DHT22;12100;44.384;20.272;2022-12-07T07:25:39;7.50;99.90
23839;DHT22;12100;44.384;20.272;2022-12-07T07:28:05;7.60;99.90
23839;DHT22;12100;44.384;20.272;2022-12-07T07:30:31;7.70;99.90
23839;DHT22;12100;44.384;20.272;2022-12-07T07:33:01;7.90;99.90
23839;DHT22;12100;44.384;20.272;2022-12-07T07:35:28;8.20;99.90
23839;DHT22;12100;44.384;20.272;2022-12-07T07:37:54;8.50;99.90
23839;DHT22;12100;44.384;20.272;2022-12-07T07:40:21;8.60;99.90
23839;DHT22;12100;44.384;20.272;2022-12-07T07:42:48;8.60;99.90
23839;DHT22;12100;44.384;20.272;2022-12-07T07:45:14;8.50;99.90
23839;DHT22;12100;44.384;20.272;2022-12-07T07:47:40;8.60;99.90
23839;DHT22;12100;44.384;20.272;2022-12-07T07:50:06;8.70;99.90
23839;DHT22;12100;44.384;20.272;2022-12-07T07:52:32;8.70;99.90
23839;DHT22;12100;44.384;20.272;2022-12-07T07:54:58;8.60;99.90
23839;DHT22;12100;44.384;20.272;2022-12-07T07:57:24;8.60;99.90
23839;DHT22;12100;44.384;20.272;2022-12-07T07:59:49;8.60;99.90
23839;DHT22;12100;44.384;20.272;2022-12-07T08:02:18;8.60;99.90
23839;DHT22;12100;44.384;20.272;2022-12-07T08:04:45;8.60;99.90
23839;DHT22;12100;44.384;20.272;2022-12-07T08:07:11;8.60;99.90
23839;DHT22;12100;44.384;20.272;2022-12-07T08:09:37;8.60;99.90
23839;DHT22;12100;44.384;20.272;2022-12-07T08:12:04;8.60;99.90
23839;DHT22;12100;44.384;20.272;2022-12-07T08:14:32;8.50;99.90
23839;DHT22;12100;44.384;20.272;2022-12-07T08:16:59;8.50;99.90
23839;DHT22;12100;44.384;20.272;2022-12-07T08:19:25;8.50;99.90
23839;DHT22;12100;44.384;20.272;2022-12-07T08:21:51;8.60;99.90
23839;DHT22;12100;44.384;20.272;2022-12-07T08:24:17;8.60;99.90
23839;DHT22;12100;44.384;20.272;2022-12-07T08:26:43;8.60;99.90
23839;DHT22;12100;44.384;20.272;2022-12-07T08:29:09;8.60;99.90
23839;DHT22;12100;44.384;20.272;2022-12-07T08:31:35;8.40;99.90
23839;DHT22;12100;44.384;20.272;2022-12-07T08:34:01;8.40;99.90
23839;DHT22;12100;44.384;20.272;2022-12-07T08:36:27;8.50;99.90
23839;DHT22;12100;44.384;20.272;2022-12-07T08:38:53;8.60;99.90
23839;DHT22;12100;44.384;20.272;2022-12-07T08:41:18;8.70;99.90
23839;DHT22;12100;44.384;20.272;2022-12-07T08:43:44;8.90;99.90
23839;DHT22;12100;44.384;20.272;2022-12-07T08:46:14;8.80;99.90
23839;DHT22;12100;44.384;20.272;2022-12-07T08:51:17;9.20;99.90
23839;DHT22;12100;44.384;20.272;2022-12-07T08:53:43;9.20;99.90
23839;DHT22;12100;44.384;20.272;2022-12-07T08:56:10;9.20;99.90
23839;DHT22;12100;44.384;20.272;2022-12-07T08:58:37;9.30;99.90
23839;DHT22;12100;44.384;20.272;2022-12-07T09:01:04;9.40;99.90
23839;DHT22;12100;44.384;20.272;2022-12-07T09:03:30;9.40;99.90
23839;DHT22;12100;44.384;20.272;2022-12-07T09:05:56;9.50;99.90
23839;DHT22;12100;44.384;20.272;2022-12-07T09:08:28;9.60;99.90
23839;DHT22;12100;44.384;20.272;2022-12-07T09:10:56;9.80;99.90
23839;DHT22;12100;44.384;20.272;2022-12-07T09:13:22;10.00;99.90
23839;DHT22;12100;44.384;20.272;2022-12-07T09:15:48;10.30;99.90
23839;DHT22;12100;44.384;20.272;2022-12-07T09:18:14;10.60;99.90
23839;DHT22;12100;44.384;20.272;2022-12-07T09:20:40;11.00;99.90
23839;DHT22;12100;44.384;20.272;2022-12-07T09:23:06;12.60;99.90
23839;DHT22;12100;44.384;20.272;2022-12-07T09:25:33;15.20;91.10
23839;DHT22;12100;44.384;20.272;2022-12-07T09:27:59;15.20;87.50
23839;DHT22;12100;44.384;20.272;2022-12-07T09:30:26;15.00;88.40
23839;DHT22;12100;44.384;20.272;2022-12-07T09:32:56;16.70;82.60
23839;DHT22;12100;44.384;20.272;2022-12-07T09:35:23;16.30;80.60
23839;DHT22;12100;44.384;20.272;2022-12-07T09:37:50;16.00;81.80
23839;DHT22;12100;44.384;20.272;2022-12-07T09:40:18;17.40;76.20
23839;DHT22;12100;44.384;20.272;2022-12-07T09:42:48;15.80;80.70
23839;DHT22;12100;44.384;20.272;2022-12-07T09:45:19;15.10;82.80
23839;DHT22;12100;44.384;20.272;2022-12-07T09:47:46;15.50;81.30
23839;DHT22;12100;44.384;20.272;2022-12-07T09:50:25;17.50;76.80
23839;DHT22;12100;44.384;20.272;2022-12-07T09:52:52;17.60;72.70
23839;DHT22;12100;44.384;20.272;2022-12-07T09:55:29;16.60;76.60
23839;DHT22;12100;44.384;20.272;2022-12-07T09:57:57;14.90;80.70
23839;DHT22;12100;44.384;20.272;2022-12-07T10:00:24;14.10;84.50
23839;DHT22;12100;44.384;20.272;2022-12-07T10:02:57;12.90;88.70
23839;DHT22;12100;44.384;20.272;2022-12-07T10:05:48;12.70;90.40
23839;DHT22;12100;44.384;20.272;2022-12-07T10:08:15;11.60;92.20
23839;DHT22;12100;44.384;20.272;2022-12-07T10:10:45;11.40;93.60
23839;DHT22;12100;44.384;20.272;2022-12-07T10:13:19;11.20;94.50
23839;DHT22;12100;44.384;20.272;2022-12-07T10:20:47;10.70;97.20
23839;DHT22;12100;44.384;20.272;2022-12-07T10:23:19;10.80;97.60
23839;DHT22;12100;44.384;20.272;2022-12-07T10:25:45;10.70;98.80
23839;DHT22;12100;44.384;20.272;2022-12-07T10:28:17;10.50;99.70
23839;DHT22;12100;44.384;20.272;2022-12-07T10:30:57;10.40;99.90
23839;DHT22;12100;44.384;20.272;2022-12-07T10:33:40;10.20;99.90
23839;DHT22;12100;44.384;20.272;2022-12-07T10:38:48;10.10;99.90
23839;DHT22;12100;44.384;20.272;2022-12-07T10:41:15;9.90;99.90
23839;DHT22;12100;44.384;20.272;2022-12-07T10:43:49;10.00;99.90
23839;DHT22;12100;44.384;20.272;2022-12-07T10:52:01;10.00;99.90
23839;DHT22;12100;44.384;20.272;2022-12-07T11:02:40;10.00;99.90
23839;DHT22;12100;44.384;20.272;2022-12-07T11:05:39;9.90;99.90
23839;DHT22;12100;44.384;20.272;2022-12-07T11:11:16;9.70;99.90
23839;DHT22;12100;44.384;20.272;2022-12-07T11:22:09;9.70;99.90
23839;DHT22;12100;44.384;20.272;2022-12-07T11:36:10;9.80;99.90
23839;DHT22;12100;44.384;20.272;2022-12-07T11:41:22;9.90;99.90
23839;DHT22;12100;44.384;20.272;2022-12-07T11:46:22;10.00;99.90
23839;DHT22;12100;44.384;20.272;2022-12-07T11:48:57;10.00;99.90
23839;DHT22;12100;44.384;20.272;2022-12-07T11:51:24;10.10;99.90
23839;DHT22;12100;44.384;20.272;2022-12-07T11:54:11;10.20;99.90
23839;DHT22;12100;44.384;20.272;2022-12-07T11:56:38;10.30;99.90
23839;DHT22;12100;44.384;20.272;2022-12-07T11:59:17;10.50;99.90
23839;DHT22;12100;44.384;20.272;2022-12-07T12:01:58;10.60;99.90
23839;DHT22;12100;44.384;20.272;2022-12-07T12:04:42;10.70;99.90
23839;DHT22;12100;44.384;20.272;2022-12-07T12:07:17;10.80;99.90
23839;DHT22;12100;44.384;20.272;2022-12-07T12:10:04;10.90;99.90
23839;DHT22;12100;44.384;20.272;2022-12-07T12:20:50;10.90;99.90
23839;DHT22;12100;44.384;20.272;2022-12-07T12:23:19;11.20;99.90
23839;DHT22;12100;44.384;20.272;2022-12-07T12:25:48;11.70;99.90
23839;DHT22;12100;44.384;20.272;2022-12-07T12:28:37;12.10;99.90
23839;DHT22;12100;44.384;20.272;2022-12-07T12:33:55;12.30;99.90
23839;DHT22;12100;44.384;20.272;2022-12-07T12:36:26;12.50;99.90
23839;DHT22;12100;44.384;20.272;2022-12-07T12:46:56;11.80;99.90
23839;DHT22;12100;44.384;20.272;2022-12-07T12:49:31;11.60;99.90
23839;DHT22;12100;44.384;20.272;2022-12-07T12:57:34;11.00;99.90
23839;DHT22;12100;44.384;20.272;2022-12-07T13:00:19;11.00;99.90
23839;DHT22;12100;44.384;20.272;2022-12-07T13:02:56;10.80;99.90
23839;DHT22;12100;44.384;20.272;2022-12-07T13:05:31;10.70;99.90
23839;DHT22;12100;44.384;20.272;2022-12-07T13:08:02;10.60;99.90
23839;DHT22;12100;44.384;20.272;2022-12-07T13:10:35;10.60;99.90
23839;DHT22;12100;44.384;20.272;2022-12-07T13:18:14;10.70;99.90
23839;DHT22;12100;44.384;20.272;2022-12-07T13:20:55;10.60;99.90
23839;DHT22;12100;44.384;20.272;2022-12-07T13:26:18;10.60;99.90
23839;DHT22;12100;44.384;20.272;2022-12-07T13:29:13;10.60;99.90
23839;DHT22;12100;44.384;20.272;2022-12-07T13:31:49;10.60;99.90
23839;DHT22;12100;44.384;20.272;2022-12-07T13:34:35;10.60;99.90
23839;DHT22;12100;44.384;20.272;2022-12-07T13:37:47;10.60;99.90
23839;DHT22;12100;44.384;20.272;2022-12-07T13:39:57;10.40;99.90
23839;DHT22;12100;44.384;20.272;2022-12-07T13:42:34;10.30;99.90
23839;DHT22;12100;44.384;20.272;2022-12-07T13:45:21;10.20;99.90
23839;DHT22;12100;44.384;20.272;2022-12-07T13:47:58;10.20;99.90
23839;DHT22;12100;44.384;20.272;2022-12-07T13:50:30;10.10;99.90
23839;DHT22;12100;44.384;20.272;2022-12-07T13:53:00;10.10;99.90
23839;DHT22;12100;44.384;20.272;2022-12-07T13:55:27;10.10;99.90
23839;DHT22;12100;44.384;20.272;2022-12-07T13:57:54;10.00;99.90
23839;DHT22;12100;44.384;20.272;2022-12-07T14:00:28;9.80;99.90
23839;DHT22;12100;44.384;20.272;2022-12-07T14:05:35;9.80;99.90
23839;DHT22;12100;44.384;20.272;2022-12-07T14:08:21;9.70;99.90
23839;DHT22;12100;44.384;20.272;2022-12-07T14:18:43;9.40;99.90
23839;DHT22;12100;44.384;20.272;2022-12-07T14:23:35;9.20;99.90
23839;DHT22;12100;44.384;20.272;2022-12-07T14:26:12;9.20;99.90
23839;DHT22;12100;44.384;20.272;2022-12-07T14:28:39;9.00;99.90
23839;DHT22;12100;44.384;20.272;2022-12-07T14:31:17;8.90;99.90
23839;DHT22;12100;44.384;20.272;2022-12-07T14:33:43;8.80;99.90
23839;DHT22;12100;44.384;20.272;2022-12-07T14:36:11;8.70;99.90
23839;DHT22;12100;44.384;20.272;2022-12-07T14:38:37;8.70;99.90
23839;DHT22;12100;44.384;20.272;2022-12-07T14:41:12;8.60;99.90
23839;DHT22;12100;44.384;20.272;2022-12-07T14:43:57;8.50;99.90
23839;DHT22;12100;44.384;20.272;2022-12-07T14:46:23;8.50;99.90
23839;DHT22;12100;44.384;20.272;2022-12-07T14:48:49;8.60;99.90
23839;DHT22;12100;44.384;20.272;2022-12-07T14:51:16;8.60;99.90
23839;DHT22;12100;44.384;20.272;2022-12-07T14:53:45;8.60;99.90
23839;DHT22;12100;44.384;20.272;2022-12-07T14:56:11;8.60;99.90
23839;DHT22;12100;44.384;20.272;2022-12-07T14:58:37;8.30;99.90
23839;DHT22;12100;44.384;20.272;2022-12-07T15:01:03;8.30;99.90
23839;DHT22;12100;44.384;20.272;2022-12-07T15:03:29;8.20;99.90
23839;DHT22;12100;44.384;20.272;2022-12-07T15:05:55;8.10;99.90
23839;DHT22;12100;44.384;20.272;2022-12-07T15:08:21;8.00;99.90
23839;DHT22;12100;44.384;20.272;2022-12-07T15:10:47;8.00;99.90
23839;DHT22;12100;44.384;20.272;2022-12-07T15:13:12;8.00;99.90
23839;DHT22;12100;44.384;20.272;2022-12-07T15:15:57;8.00;99.90
23839;DHT22;12100;44.384;20.272;2022-12-07T15:18:23;8.00;99.90
23839;DHT22;12100;44.384;20.272;2022-12-07T15:20:49;8.00;99.90
23839;DHT22;12100;44.384;20.272;2022-12-07T15:23:15;8.00;99.90
23839;DHT22;12100;44.384;20.272;2022-12-07T15:25:42;8.10;99.90
23839;DHT22;12100;44.384;20.272;2022-12-07T15:28:08;8.10;99.90
23839;DHT22;12100;44.384;20.272;2022-12-07T15:30:34;8.00;99.90
23839;DHT22;12100;44.384;20.272;2022-12-07T15:33:02;7.90;99.90
23839;DHT22;12100;44.384;20.272;2022-12-07T15:35:27;7.80;99.90
23839;DHT22;12100;44.384;20.272;2022-12-07T15:37:53;7.80;99.90
23839;DHT22;12100;44.384;20.272;2022-12-07T15:40:19;7.90;99.90
23839;DHT22;12100;44.384;20.272;2022-12-07T15:42:45;7.80;99.90
23839;DHT22;12100;44.384;20.272;2022-12-07T15:45:11;7.80;99.90
23839;DHT22;12100;44.384;20.272;2022-12-07T15:47:43;7.80;99.90
23839;DHT22;12100;44.384;20.272;2022-12-07T15:50:13;7.80;99.90
23839;DHT22;12100;44.384;20.272;2022-12-07T15:52:40;7.80;99.90
23839;DHT22;12100;44.384;20.272;2022-12-07T15:55:06;7.70;99.90
23839;DHT22;12100;44.384;20.272;2022-12-07T15:57:34;7.70;99.90
23839;DHT22;12100;44.384;20.272;2022-12-07T16:00:01;7.60;99.90
23839;DHT22;12100;44.384;20.272;2022-12-07T16:02:27;7.70;99.90
23839;DHT22;12100;44.384;20.272;2022-12-07T16:04:53;7.60;99.90
23839;DHT22;12100;44.384;20.272;2022-12-07T16:07:19;7.60;99.90
23839;DHT22;12100;44.384;20.272;2022-12-07T16:09:45;7.50;99.90
23839;DHT22;12100;44.384;20.272;2022-12-07T16:12:12;7.50;99.90
23839;DHT22;12100;44.384;20.272;2022-12-07T16:14:38;7.50;99.90
23839;DHT22;12100;44.384;20.272;2022-12-07T16:17:05;7.50;99.90
23839;DHT22;12100;44.384;20.272;2022-12-07T16:19:32;7.50;99.90
23839;DHT22;12100;44.384;20.272;2022-12-07T16:21:58;7.50;99.90
23839;DHT22;12100;44.384;20.272;2022-12-07T16:24:24;7.50;99.90
23839;DHT22;12100;44.384;20.272;2022-12-07T16:26:51;7.50;99.90
23839;DHT22;12100;44.384;20.272;2022-12-07T16:29:19;7.50;99.90
23839;DHT22;12100;44.384;20.272;2022-12-07T16:31:46;7.60;99.90
23839;DHT22;12100;44.384;20.272;2022-12-07T16:34:12;7.60;99.90
23839;DHT22;12100;44.384;20.272;2022-12-07T16:36:38;7.60;99.90
23839;DHT22;12100;44.384;20.272;2022-12-07T16:39:05;7.60;99.90
23839;DHT22;12100;44.384;20.272;2022-12-07T16:41:31;7.60;99.90
23839;DHT22;12100;44.384;20.272;2022-12-07T16:43:58;7.50;99.90
23839;DHT22;12100;44.384;20.272;2022-12-07T16:46:27;7.50;99.90
23839;DHT22;12100;44.384;20.272;2022-12-07T16:48:53;7.40;99.90
23839;DHT22;12100;44.384;20.272;2022-12-07T16:51:18;7.50;99.90
23839;DHT22;12100;44.384;20.272;2022-12-07T16:53:44;7.50;99.90
23839;DHT22;12100;44.384;20.272;2022-12-07T16:56:12;7.40;99.90
23839;DHT22;12100;44.384;20.272;2022-12-07T16:58:38;7.40;99.90
23839;DHT22;12100;44.384;20.272;2022-12-07T17:01:16;7.40;99.90
23839;DHT22;12100;44.384;20.272;2022-12-07T17:03:42;7.40;99.90
23839;DHT22;12100;44.384;20.272;2022-12-07T17:06:20;7.40;99.90
23839;DHT22;12100;44.384;20.272;2022-12-07T17:08:47;7.40;99.90
23839;DHT22;12100;44.384;20.272;2022-12-07T17:11:15;7.40;99.90
23839;DHT22;12100;44.384;20.272;2022-12-07T17:13:41;7.40;99.90
23839;DHT22;12100;44.384;20.272;2022-12-07T17:16:26;7.50;99.90
23839;DHT22;12100;44.384;20.272;2022-12-07T17:18:52;7.50;99.90
23839;DHT22;12100;44.384;20.272;2022-12-07T17:21:18;7.50;99.90
23839;DHT22;12100;44.384;20.272;2022-12-07T17:23:45;7.60;99.90
23839;DHT22;12100;44.384;20.272;2022-12-07T17:26:16;7.50;99.90
23839;DHT22;12100;44.384;20.272;2022-12-07T17:28:43;7.50;99.90
23839;DHT22;12100;44.384;20.272;2022-12-07T17:31:11;7.50;99.90
23839;DHT22;12100;44.384;20.272;2022-12-07T17:33:37;7.40;99.90
23839;DHT22;12100;44.384;20.272;2022-12-07T17:38:40;7.40;99.90
23839;DHT22;12100;44.384;20.272;2022-12-07T17:41:17;7.40;99.90
23839;DHT22;12100;44.384;20.272;2022-12-07T17:44:06;7.50;99.90
23839;DHT22;12100;44.384;20.272;2022-12-07T17:46:32;7.50;99.90
23839;DHT22;12100;44.384;20.272;2022-12-07T17:48:58;7.50;99.90
23839;DHT22;12100;44.384;20.272;2022-12-07T17:51:24;7.50;99.90
23839;DHT22;12100;44.384;20.272;2022-12-07T17:54:09;7.50;99.90
23839;DHT22;12100;44.384;20.272;2022-12-07T17:56:35;7.50;99.90
23839;DHT22;12100;44.384;20.272;2022-12-07T17:59:02;7.50;99.90